createdAt,value
2022-12-29T00:11:44.487Z,12.00
2022-12-29T00:14:58.019Z,12.30
2022-12-29T00:17:41.466Z,12.40
2022-12-29T00:20:39.649Z,12.10
2022-12-29T00:27:02.406Z,12.30
2022-12-29T00:29:52.452Z,12.20
2022-12-29T00:32:58.406Z,12.20
2022-12-29T00:36:00.900Z,12.20
2022-12-29T00:39:56.439Z,12.20
2022-12-29T00:43:00.734Z,12.10
2022-12-29T00:49:36.202Z,12.10
2022-12-29T00:53:36.932Z,12.10
2022-12-29T00:56:24.758Z,12.00
2022-12-29T01:06:38.374Z,11.90
2022-12-29T01:10:04.025Z,11.80
2022-12-29T01:12:51.101Z,11.90
2022-12-29T01:16:01.427Z,11.90
2022-12-29T01:18:47.837Z,11.90
2022-12-29T01:21:18.112Z,11.90
2022-12-29T01:23:46.206Z,11.90
2022-12-29T01:26:27.390Z,11.80
2022-12-29T01:29:18.949Z,11.80
2022-12-29T01:32:06.903Z,11.90
2022-12-29T01:37:55.759Z,11.80
2022-12-29T01:40:33.782Z,11.80
2022-12-29T01:43:09.398Z,11.70
2022-12-29T01:45:48.701Z,11.70
2022-12-29T01:48:21.128Z,11.70
2022-12-29T01:51:08.592Z,11.70
2022-12-29T01:54:32.222Z,11.70
2022-12-29T02:00:54.351Z,11.60
2022-12-29T02:07:24.739Z,11.70
2022-12-29T02:10:50.025Z,11.70
2022-12-29T02:13:21.594Z,11.70
2022-12-29T02:16:19.642Z,11.70
2022-12-29T02:19:15.907Z,11.80
2022-12-29T02:22:20.967Z,11.80
2022-12-29T02:25:36.518Z,11.70
2022-12-29T02:28:41.993Z,11.80
2022-12-29T02:32:01.688Z,11.80
2022-12-29T02:35:09.344Z,11.70
2022-12-29T02:40:54.129Z,11.70
2022-12-29T02:43:37.385Z,11.70
2022-12-29T02:46:30.439Z,11.70
2022-12-29T02:49:18.136Z,11.60
2022-12-29T02:52:43.058Z,11.60
2022-12-29T02:55:20.913Z,11.60
2022-12-29T02:58:49.625Z,11.60
2022-12-29T03:02:41.972Z,11.60
2022-12-29T03:06:05.472Z,11.60
2022-12-29T03:09:35.036Z,11.60
2022-12-29T03:13:10.124Z,11.60
2022-12-29T03:16:09.982Z,11.60
2022-12-29T03:19:16.715Z,11.60
2022-12-29T03:22:30.756Z,11.60
2022-12-29T03:25:19.567Z,11.60
2022-12-29T03:31:10.659Z,11.50
2022-12-29T03:33:52.886Z,11.70
2022-12-29T03:36:58.431Z,11.60
2022-12-29T03:39:43.866Z,11.60
2022-12-29T03:42:27.516Z,11.50
2022-12-29T03:45:12.805Z,11.50
2022-12-29T03:47:55.519Z,11.60
2022-12-29T03:51:02.553Z,11.60
2022-12-29T03:54:00.204Z,11.50
2022-12-29T03:56:57.063Z,11.50
2022-12-29T04:02:54.032Z,11.30
2022-12-29T04:10:01.887Z,11.40
2022-12-29T04:12:36.645Z,11.40
2022-12-29T04:15:13.050Z,11.40
2022-12-29T04:17:57.672Z,11.30
2022-12-29T04:20:47.023Z,11.30
2022-12-29T04:23:19.096Z,11.10
2022-12-29T04:26:05.301Z,11.20
2022-12-29T04:28:35.727Z,11.10
2022-12-29T04:31:09.637Z,11.30
2022-12-29T04:33:44.624Z,11.10
2022-12-29T04:36:19.617Z,11.10
2022-12-29T04:39:01.420Z,11.00
2022-12-29T04:41:29.959Z,10.90
2022-12-29T04:44:19.817Z,11.20
2022-12-29T04:46:54.103Z,11.10
2022-12-29T04:49:29.604Z,11.00
2022-12-29T04:52:15.905Z,11.00
2022-12-29T04:54:55.008Z,10.80
2022-12-29T04:57:35.773Z,10.90
2022-12-29T05:00:12.592Z,11.00
2022-12-29T05:02:50.424Z,11.00
2022-12-29T05:05:45.217Z,11.00
2022-12-29T05:08:46.195Z,11.00
2022-12-29T05:11:21.601Z,10.90
2022-12-29T05:13:56.636Z,11.00
2022-12-29T05:17:11.113Z,10.80
2022-12-29T05:19:45.140Z,10.80
2022-12-29T05:22:29.947Z,10.80
2022-12-29T05:25:15.955Z,10.90
2022-12-29T05:28:09.465Z,10.70
2022-12-29T05:31:32.277Z,10.70
2022-12-29T05:37:24.739Z,10.70
2022-12-29T05:40:18.875Z,10.70
2022-12-29T05:43:12.039Z,10.70
2022-12-29T05:46:10.387Z,10.80
2022-12-29T05:49:00.219Z,10.70
2022-12-29T05:51:32.055Z,10.70
2022-12-29T05:54:18.273Z,10.70
2022-12-29T05:56:54.567Z,10.60
2022-12-29T05:59:32.366Z,10.60
2022-12-29T06:03:14.262Z,10.60
2022-12-29T06:06:18.686Z,10.60
2022-12-29T06:13:08.912Z,10.40
2022-12-29T06:15:45.785Z,10.40
2022-12-29T06:18:33.148Z,10.40
2022-12-29T06:21:10.497Z,10.40
2022-12-29T06:24:21.206Z,10.40
2022-12-29T06:28:07.674Z,10.40
2022-12-29T06:31:14.030Z,10.30
2022-12-29T06:34:39.933Z,10.50
2022-12-29T06:37:48.091Z,10.60
2022-12-29T06:41:25.638Z,10.50
2022-12-29T06:48:36.755Z,10.40
2022-12-29T06:52:12.689Z,10.30
2022-12-29T06:54:50.440Z,10.40
2022-12-29T06:57:33.707Z,10.30
2022-12-29T07:00:25.304Z,10.30
2022-12-29T07:03:07.349Z,10.40
2022-12-29T07:05:51.495Z,10.10
2022-12-29T07:08:21.256Z,10.30
2022-12-29T07:10:59.396Z,10.30
2022-12-29T07:13:55.259Z,10.30
2022-12-29T07:16:54.783Z,10.30
2022-12-29T07:19:29.061Z,10.30
2022-12-29T07:22:31.826Z,10.50
2022-12-29T07:28:15.640Z,10.40
2022-12-29T07:31:01.512Z,10.40
2022-12-29T07:33:55.650Z,10.50
2022-12-29T07:36:32.377Z,10.40
2022-12-29T07:39:14.231Z,10.50
2022-12-29T07:41:58.264Z,10.50
2022-12-29T07:44:50.340Z,10.60
2022-12-29T07:48:04.512Z,10.60
2022-12-29T07:50:42.652Z,10.60
2022-12-29T07:53:22.013Z,10.60
2022-12-29T07:55:50.329Z,10.70
2022-12-29T07:58:36.085Z,10.90
2022-12-29T08:01:12.850Z,10.90
2022-12-29T08:04:06.764Z,10.70
2022-12-29T08:06:37.562Z,10.80
2022-12-29T08:09:19.584Z,10.90
2022-12-29T08:11:50.587Z,10.80
2022-12-29T08:14:59.987Z,10.70
2022-12-29T08:17:33.790Z,10.60
2022-12-29T08:20:38.999Z,10.60
2022-12-29T08:24:45.291Z,10.60
2022-12-29T08:31:53.674Z,10.60
2022-12-29T08:35:58.143Z,10.60
2022-12-29T08:39:33.041Z,10.60
2022-12-29T08:56:49.456Z,10.30
2022-12-29T09:02:45.674Z,10.10
2022-12-29T09:05:20.318Z,10.10
2022-12-29T09:11:15.870Z,10.10
2022-12-29T09:26:49.592Z,10.20
2022-12-29T10:04:27.468Z,10.50
2022-12-29T10:07:29.091Z,10.90
2022-12-29T10:10:12.891Z,10.70
2022-12-29T10:13:18.060Z,10.90
2022-12-29T10:16:14.057Z,10.80
2022-12-29T10:19:33.130Z,10.80
2022-12-29T10:22:24.690Z,10.70
2022-12-29T10:25:08.622Z,10.80
2022-12-29T10:27:51.631Z,10.80
2022-12-29T10:30:22.191Z,10.80
2022-12-29T10:33:11.284Z,10.80
2022-12-29T10:35:47.381Z,10.80
2022-12-29T10:38:48.895Z,10.80
2022-12-29T10:41:35.780Z,10.80
2022-12-29T10:44:17.361Z,10.90
2022-12-29T10:47:17.857Z,10.90
2022-12-29T10:50:31.565Z,11.00
2022-12-29T10:53:18.868Z,10.90
2022-12-29T10:56:20.112Z,11.00
2022-12-29T10:59:09.384Z,11.10
2022-12-29T11:05:07.217Z,11.00
2022-12-29T11:07:44.017Z,11.10
2022-12-29T11:10:27.244Z,11.20
2022-12-29T11:13:15.927Z,11.20
2022-12-29T11:16:02.315Z,11.20
2022-12-29T11:18:57.038Z,11.20
2022-12-29T11:21:43.674Z,11.00
2022-12-29T11:24:40.264Z,11.00
2022-12-29T11:27:32.732Z,11.00
2022-12-29T11:30:31.496Z,11.10
2022-12-29T11:33:06.676Z,11.00
2022-12-29T11:36:07.392Z,11.00
2022-12-29T11:38:50.507Z,10.90
2022-12-29T11:41:36.256Z,10.90
2022-12-29T11:44:08.183Z,10.90
2022-12-29T11:47:06.287Z,11.00
2022-12-29T11:49:50.948Z,11.00
2022-12-29T11:52:27.974Z,11.00
2022-12-29T11:55:14.931Z,11.00
2022-12-29T11:57:59.152Z,11.00
2022-12-29T12:00:59.595Z,11.00
2022-12-29T12:03:44.975Z,11.10
2022-12-29T12:06:29.335Z,11.10
2022-12-29T12:09:27.556Z,11.00
2022-12-29T12:12:18.772Z,11.20
2022-12-29T12:15:08.912Z,11.20
2022-12-29T12:17:51.865Z,11.20
2022-12-29T12:20:51.780Z,11.10
2022-12-29T12:23:34.064Z,11.20
2022-12-29T12:26:12.384Z,11.30
2022-12-29T12:29:21.921Z,11.20
2022-12-29T12:32:03.832Z,11.30
2022-12-29T12:34:53.189Z,11.20
2022-12-29T12:38:10.242Z,11.20
2022-12-29T12:41:15.516Z,11.20
2022-12-29T12:44:02.046Z,11.20
2022-12-29T12:47:03.711Z,11.20
2022-12-29T12:53:36.441Z,11.20
2022-12-29T12:56:40.623Z,11.20
2022-12-29T12:59:29.331Z,11.20
2022-12-29T13:02:26.973Z,11.20
2022-12-29T13:05:24.458Z,11.00
2022-12-29T13:08:25.505Z,11.20
2022-12-29T13:11:19.045Z,11.20
2022-12-29T13:14:08.749Z,11.20
2022-12-29T13:16:53.932Z,11.00
2022-12-29T13:19:35.404Z,11.20
2022-12-29T13:22:21.107Z,11.30
2022-12-29T13:25:28.246Z,11.30
2022-12-29T13:28:34.795Z,11.30
2022-12-29T13:31:17.488Z,11.30
2022-12-29T13:34:18.731Z,11.30
2022-12-29T13:36:57.748Z,11.20
2022-12-29T13:39:48.738Z,11.10
2022-12-29T13:42:28.408Z,11.20
2022-12-29T13:45:04.948Z,11.20
2022-12-29T13:47:43.207Z,11.00
2022-12-29T13:50:20.803Z,11.00
2022-12-29T13:53:05.751Z,10.90
2022-12-29T13:55:41.357Z,10.70
2022-12-29T13:58:24.752Z,10.60
2022-12-29T14:01:01.015Z,10.60
2022-12-29T14:03:52.477Z,10.60
2022-12-29T14:06:33.581Z,10.60
2022-12-29T14:09:06.381Z,10.60
2022-12-29T14:11:37.941Z,10.50
2022-12-29T14:14:24.018Z,10.50
2022-12-29T14:16:56.419Z,10.50
2022-12-29T14:19:30.377Z,10.50
2022-12-29T14:22:06.663Z,10.50
2022-12-29T14:24:45.111Z,10.60
2022-12-29T14:27:59.203Z,10.50
2022-12-29T14:31:09.230Z,10.50
2022-12-29T14:34:19.887Z,10.50
2022-12-29T14:37:33.888Z,10.60
2022-12-29T14:40:40.171Z,10.60
2022-12-29T14:43:29.338Z,10.60
2022-12-29T14:46:26.221Z,10.70
2022-12-29T14:49:15.328Z,10.60
2022-12-29T14:51:52.155Z,10.50
2022-12-29T14:54:52.268Z,10.60
2022-12-29T14:57:58.192Z,10.50
2022-12-29T15:00:50.510Z,10.60
2022-12-29T15:03:39.706Z,10.70
2022-12-29T15:06:26.917Z,10.70
2022-12-29T15:09:12.100Z,10.50
2022-12-29T15:12:01.737Z,10.50
2022-12-29T15:14:46.770Z,10.50
2022-12-29T15:17:38.645Z,10.60
2022-12-29T15:20:39.450Z,10.50
2022-12-29T15:23:37.418Z,10.40
2022-12-29T15:26:24.107Z,10.40
2022-12-29T15:29:09.999Z,10.60
2022-12-29T15:31:53.051Z,10.40
2022-12-29T15:34:43.218Z,10.40
2022-12-29T15:37:42.536Z,10.40
2022-12-29T15:41:02.667Z,10.40
2022-12-29T15:43:47.193Z,10.40
2022-12-29T15:46:25.320Z,10.20
2022-12-29T15:48:57.299Z,10.20
2022-12-29T15:51:38.376Z,10.40
2022-12-29T15:54:20.259Z,10.10
2022-12-29T15:56:56.940Z,10.10
2022-12-29T15:59:38.573Z,10.10
2022-12-29T16:02:24.290Z,10.00
2022-12-29T16:08:02.388Z,10.00
2022-12-29T16:10:42.318Z,9.90
2022-12-29T16:13:39.631Z,9.90
2022-12-29T16:16:33.174Z,9.90
2022-12-29T16:19:20.670Z,9.80
2022-12-29T16:22:05.452Z,9.80
2022-12-29T16:24:46.208Z,9.80
2022-12-29T16:27:38.309Z,9.80
2022-12-29T16:30:29.519Z,9.80
2022-12-29T16:33:07.203Z,9.70
2022-12-29T16:35:51.588Z,9.70
2022-12-29T16:38:25.284Z,9.60
2022-12-29T16:40:56.994Z,9.70
2022-12-29T16:43:32.013Z,9.60
2022-12-29T16:46:22.921Z,9.60
2022-12-29T16:49:13.587Z,9.60
2022-12-29T16:51:46.703Z,9.60
2022-12-29T16:54:29.638Z,9.60
2022-12-29T16:57:08.941Z,9.50
2022-12-29T16:59:46.284Z,9.50
2022-12-29T17:02:33.692Z,9.50
2022-12-29T17:05:05.925Z,9.40
2022-12-29T17:07:39.207Z,9.40
2022-12-29T17:10:18.125Z,9.40
2022-12-29T17:12:50.886Z,9.40
2022-12-29T17:15:30.480Z,9.30
2022-12-29T17:18:13.446Z,9.30
2022-12-29T17:21:01.775Z,9.30
2022-12-29T17:23:42.618Z,9.30
2022-12-29T17:26:20.036Z,9.30
2022-12-29T17:29:01.481Z,9.40
2022-12-29T17:31:37.795Z,9.30
2022-12-29T17:34:13.425Z,9.30
2022-12-29T17:36:45.074Z,9.30
2022-12-29T17:39:18.500Z,9.30
2022-12-29T17:41:52.170Z,9.30
2022-12-29T17:44:27.006Z,9.20
2022-12-29T17:46:59.909Z,9.30
2022-12-29T17:49:30.460Z,9.20
2022-12-29T17:52:02.783Z,9.30
2022-12-29T17:54:31.494Z,9.10
2022-12-29T17:57:00.959Z,9.00
2022-12-29T17:59:33.759Z,8.90
2022-12-29T18:02:26.165Z,9.00
2022-12-29T18:05:02.806Z,9.00
2022-12-29T18:07:35.928Z,9.00
2022-12-29T18:10:06.931Z,8.80
2022-12-29T18:12:47.209Z,9.00
2022-12-29T18:15:28.656Z,9.00
2022-12-29T18:18:06.286Z,9.00
2022-12-29T18:20:35.229Z,9.00
2022-12-29T18:23:18.862Z,8.90
2022-12-29T18:25:54.934Z,9.00
2022-12-29T18:28:24.032Z,8.90
2022-12-29T18:30:56.502Z,9.10
2022-12-29T18:33:30.792Z,9.00
2022-12-29T18:36:02.288Z,8.90
2022-12-29T18:38:35.981Z,9.00
2022-12-29T18:41:15.684Z,9.00
2022-12-29T18:43:53.731Z,9.00
2022-12-29T18:46:42.737Z,9.00
2022-12-29T18:49:23.882Z,9.00
2022-12-29T18:52:14.009Z,9.00
2022-12-29T18:54:57.520Z,9.00
2022-12-29T18:57:42.862Z,9.00
2022-12-29T19:00:36.112Z,9.00
2022-12-29T19:03:18.228Z,9.00
2022-12-29T19:06:08.763Z,9.00
2022-12-29T19:08:59.326Z,8.80
2022-12-29T19:11:37.555Z,9.00
2022-12-29T19:14:19.626Z,8.90
2022-12-29T19:16:53.833Z,9.10
2022-12-29T19:19:28.032Z,8.90
2022-12-29T19:22:12.887Z,8.60
2022-12-29T19:24:53.603Z,8.90
2022-12-29T19:27:25.909Z,8.80
2022-12-29T19:30:14.347Z,8.80
2022-12-29T19:32:49.334Z,8.60
2022-12-29T19:35:33.018Z,8.80
2022-12-29T19:38:34.136Z,8.80
2022-12-29T19:41:10.477Z,8.80
2022-12-29T19:44:14.929Z,8.60
2022-12-29T19:47:11.207Z,8.70
2022-12-29T19:49:58.903Z,8.70
2022-12-29T19:52:55.597Z,8.70
2022-12-29T19:55:59.704Z,8.70
2022-12-29T19:58:42.601Z,8.90
2022-12-29T20:01:37.472Z,8.70
2022-12-29T20:07:05.231Z,8.70
2022-12-29T20:09:50.213Z,8.70
2022-12-29T20:12:36.789Z,8.70
2022-12-29T20:15:15.884Z,8.80
2022-12-29T20:20:56.864Z,8.70
2022-12-29T20:23:28.542Z,8.70
2022-12-29T20:26:10.918Z,8.70
2022-12-29T20:28:54.901Z,8.70
2022-12-29T20:34:33.383Z,8.70
2022-12-29T20:37:26.175Z,8.70
2022-12-29T20:40:25.890Z,8.50
2022-12-29T20:46:20.871Z,8.70
2022-12-29T20:49:27.215Z,8.70
2022-12-29T20:52:44.167Z,8.70
2022-12-29T20:55:30.734Z,8.70
2022-12-29T20:58:26.159Z,8.50
2022-12-29T21:01:13.410Z,8.70
2022-12-29T21:03:57.494Z,8.60
2022-12-29T21:06:42.512Z,8.60
2022-12-29T21:09:30.739Z,8.60
2022-12-29T21:12:17.548Z,8.70
2022-12-29T21:14:53.124Z,8.50
2022-12-29T21:17:46.823Z,8.60
2022-12-29T21:20:39.404Z,8.40
2022-12-29T21:23:20.365Z,8.40
2022-12-29T21:26:02.601Z,8.40
2022-12-29T21:28:37.577Z,8.60
2022-12-29T21:31:39.145Z,8.30
2022-12-29T21:34:37.047Z,8.20
2022-12-29T21:37:31.632Z,8.30
2022-12-29T21:40:29.202Z,8.30
2022-12-29T21:43:32.029Z,8.30
2022-12-29T21:46:22.104Z,8.40
2022-12-29T21:49:23.278Z,8.30
2022-12-29T21:52:36.956Z,8.40
2022-12-29T21:55:26.295Z,8.30
2022-12-29T21:58:28.175Z,8.50
2022-12-29T22:01:49.433Z,8.30
2022-12-29T22:15:27.924Z,8.30
2022-12-29T22:18:26.811Z,8.00
2022-12-29T22:21:47.634Z,8.20
2022-12-29T22:37:14.507Z,8.20
2022-12-29T22:40:03.847Z,8.10
2022-12-29T22:45:55.184Z,8.10
2022-12-29T22:49:23.164Z,8.10
2022-12-29T22:52:23.695Z,8.10
2022-12-29T22:55:41.846Z,8.10
2022-12-29T22:59:02.320Z,8.20
2022-12-29T23:02:10.516Z,8.20
2022-12-29T23:05:13.882Z,8.00
2022-12-29T23:08:30.893Z,8.00
2022-12-29T23:12:21.537Z,8.00
2022-12-29T23:14:49.022Z,8.00
2022-12-29T23:24:11.417Z,8.00
2022-12-29T23:27:41.102Z,7.90
2022-12-29T23:30:56.394Z,8.00
2022-12-29T23:34:48.052Z,7.70
2022-12-29T23:37:48.825Z,7.90
2022-12-29T23:40:52.767Z,7.90
2022-12-29T23:44:22.343Z,7.90
2022-12-29T23:48:20.675Z,7.90
2022-12-29T23:54:23.462Z,7.70
2022-12-29T23:58:01.758Z,7.80
